Abbott, New Mexico
Current Conditions -  °F | °C
As of 12:53 AM on Friday 24 Oct 2014 (Local Time) from KRTN Reporting Station
Clear Clear  
Wind Chill: 42°   Ceiling: Unl
Heat Index: 42°   Visibility: 10mi
Dew Point: 34°   Wind: 3mph
Humidity: 73%   Direction: 50°NE
Pressure: 30.27"   Gusts: NA
Location:  36.3883°N, 104.381°W
Report Text: KRTN 240653Z AUTO 05003KT 10SM CLR 06/01 A3027 RMK AO2 SLP190 T00560011 402330028
Loading
Personal Weather Stations






























Interactive Weather Map
Tropical Storm Tracking
New forecast layout! Learn more

10-Day Weather Forecast

Advertisements
Track Severe Weather on mobile